createdAt,value
2022-07-28T00:00:48.298Z,19.09
2022-07-28T00:03:14.883Z,19.10
2022-07-28T00:05:41.548Z,18.99
2022-07-28T00:08:28.119Z,18.99
2022-07-28T00:11:14.704Z,18.94
2022-07-28T00:14:01.177Z,18.91
2022-07-28T00:16:47.912Z,18.87
2022-07-28T00:19:34.564Z,18.83
2022-07-28T00:22:21.064Z,18.80
2022-07-28T00:24:49.197Z,18.76
2022-07-28T00:27:19.155Z,18.80
2022-07-28T00:29:50.280Z,18.70
2022-07-28T00:32:18.385Z,18.69
2022-07-28T00:34:45.105Z,18.62
2022-07-28T00:37:14.489Z,18.68
2022-07-28T00:39:42.011Z,18.52
2022-07-28T00:42:09.029Z,18.49
2022-07-28T00:44:35.727Z,18.59
2022-07-28T00:47:02.244Z,18.65
2022-07-28T00:49:28.773Z,18.52
2022-07-28T00:51:56.597Z,18.57
2022-07-28T00:54:23.200Z,18.49
2022-07-28T00:56:51.060Z,18.50
2022-07-28T00:59:17.577Z,18.47
2022-07-28T01:01:44.110Z,18.44
2022-07-28T01:04:10.842Z,18.47
2022-07-28T01:06:51.365Z,18.58
2022-07-28T01:09:49.607Z,18.56
2022-07-28T01:12:34.213Z,18.47
2022-07-28T01:15:23.039Z,18.34
2022-07-28T01:18:04.859Z,18.34
2022-07-28T01:20:34.375Z,18.25
2022-07-28T01:23:19.673Z,18.29
2022-07-28T01:26:13.912Z,18.17
2022-07-28T01:29:05.297Z,18.02
2022-07-28T01:31:38.298Z,18.09
2022-07-28T01:34:17.126Z,18.13
2022-07-28T01:36:51.924Z,18.10
2022-07-28T01:39:19.511Z,18.01
2022-07-28T01:41:49.641Z,18.02
2022-07-28T01:44:20.323Z,17.94
2022-07-28T01:46:48.719Z,17.91
2022-07-28T01:49:18.221Z,18.03
2022-07-28T01:51:46.691Z,18.02
2022-07-28T01:54:15.533Z,17.91
2022-07-28T01:56:43.268Z,17.75
2022-07-28T01:59:12.543Z,17.81
2022-07-28T02:01:44.050Z,17.85
2022-07-28T02:04:12.768Z,17.76
2022-07-28T02:06:42.114Z,17.74
2022-07-28T02:09:09.281Z,17.72
2022-07-28T02:11:39.675Z,17.80
2022-07-28T02:14:17.388Z,17.80
2022-07-28T02:16:49.466Z,17.83
2022-07-28T02:19:18.038Z,17.77
2022-07-28T02:21:48.805Z,17.80
2022-07-28T02:24:18.464Z,17.88
2022-07-28T02:26:50.553Z,17.75
2022-07-28T02:29:47.924Z,17.84
2022-07-28T02:32:26.958Z,17.78
2022-07-28T02:34:58.652Z,17.71
2022-07-28T02:37:26.523Z,17.73
2022-07-28T02:40:00.306Z,17.78
2022-07-28T02:42:32.755Z,17.78
2022-07-28T02:45:01.600Z,17.72
2022-07-28T02:47:31.688Z,17.68
2022-07-28T02:50:02.399Z,17.77
2022-07-28T02:52:29.753Z,17.80
2022-07-28T02:54:58.669Z,17.73
2022-07-28T02:57:26.713Z,17.69
2022-07-28T02:59:54.461Z,17.71
2022-07-28T03:02:22.505Z,17.63
2022-07-28T03:04:59.536Z,17.66
2022-07-28T03:07:30.993Z,17.50
2022-07-28T03:09:59.117Z,17.51
2022-07-28T03:12:26.969Z,17.50
2022-07-28T03:14:53.478Z,17.50
2022-07-28T03:17:20.108Z,17.45
2022-07-28T03:19:46.747Z,17.33
2022-07-28T03:22:13.185Z,17.40
2022-07-28T03:24:44.453Z,17.49
2022-07-28T03:27:26.675Z,17.48
2022-07-28T03:30:15.347Z,17.41
2022-07-28T03:32:48.508Z,17.43
2022-07-28T03:35:15.334Z,17.25
2022-07-28T03:37:52.733Z,17.33
2022-07-28T03:40:20.693Z,17.32
2022-07-28T03:42:49.440Z,17.20
2022-07-28T03:45:16.234Z,17.10
2022-07-28T03:47:55.094Z,17.18
2022-07-28T03:50:23.297Z,17.14
2022-07-28T03:52:49.953Z,17.12
2022-07-28T03:55:16.757Z,17.20
2022-07-28T03:57:43.472Z,17.22
2022-07-28T04:00:11.152Z,17.13
2022-07-28T04:02:43.946Z,17.17
2022-07-28T04:05:15.922Z,17.20
2022-07-28T04:07:43.555Z,17.23
2022-07-28T04:10:13.311Z,17.22
2022-07-28T04:12:47.407Z,17.20
2022-07-28T04:15:15.656Z,17.26
2022-07-28T04:17:42.735Z,17.14
2022-07-28T04:20:10.720Z,17.18
2022-07-28T04:22:37.996Z,17.25
2022-07-28T04:25:05.632Z,17.26
2022-07-28T04:27:32.163Z,17.24
2022-07-28T04:29:58.606Z,17.21
2022-07-28T04:32:25.095Z,17.16
2022-07-28T04:34:51.647Z,17.22
2022-07-28T04:37:18.093Z,17.19
2022-07-28T04:39:45.189Z,17.18
2022-07-28T04:42:11.847Z,17.20
2022-07-28T04:44:42.286Z,17.31
2022-07-28T04:47:09.216Z,17.38
2022-07-28T04:49:35.917Z,17.46
2022-07-28T04:52:03.370Z,17.44
2022-07-28T04:54:29.906Z,17.46
2022-07-28T04:56:56.526Z,17.60
2022-07-28T04:59:23.112Z,17.65
2022-07-28T05:01:51.422Z,17.66
2022-07-28T05:04:18.485Z,17.63
2022-07-28T05:06:45.442Z,17.74
2022-07-28T05:09:11.980Z,17.75
2022-07-28T05:11:38.455Z,17.91
2022-07-28T05:14:05.361Z,17.99
2022-07-28T05:16:32.322Z,17.96
2022-07-28T05:19:00.901Z,18.01
2022-07-28T05:21:27.525Z,18.07
2022-07-28T05:23:54.079Z,18.19
2022-07-28T05:26:20.700Z,18.16
2022-07-28T05:28:47.220Z,18.14
2022-07-28T05:31:14.372Z,18.17
2022-07-28T05:33:40.895Z,18.25
2022-07-28T05:36:08.080Z,18.22
2022-07-28T05:38:34.932Z,18.27
2022-07-28T05:41:01.502Z,18.31
2022-07-28T05:43:28.121Z,18.39
2022-07-28T05:45:54.701Z,18.41
2022-07-28T05:48:21.991Z,18.50
2022-07-28T05:50:49.899Z,18.65
2022-07-28T05:53:17.507Z,18.79
2022-07-28T05:55:59.830Z,18.89
2022-07-28T05:58:27.594Z,18.80
2022-07-28T06:00:54.144Z,19.00
2022-07-28T06:03:20.848Z,19.07
2022-07-28T06:06:00.612Z,19.23
2022-07-28T06:08:34.124Z,19.10
2022-07-28T06:11:09.177Z,19.07
2022-07-28T06:13:36.266Z,19.23
2022-07-28T06:16:07.416Z,19.30
2022-07-28T06:18:37.659Z,19.36
2022-07-28T06:21:04.220Z,19.43
2022-07-28T06:23:30.653Z,19.52
2022-07-28T06:25:57.125Z,19.63
2022-07-28T06:28:23.696Z,19.61
2022-07-28T06:30:50.249Z,19.78
2022-07-28T06:33:17.552Z,19.83
2022-07-28T06:35:51.084Z,19.90
2022-07-28T06:38:20.272Z,19.98
2022-07-28T06:40:47.527Z,20.27
2022-07-28T06:43:14.586Z,20.38
2022-07-28T06:45:41.723Z,20.61
2022-07-28T06:48:08.614Z,20.78
2022-07-28T06:50:36.348Z,20.89
2022-07-28T06:53:02.820Z,21.00
2022-07-28T06:55:35.457Z,21.05
2022-07-28T06:58:05.802Z,21.18
2022-07-28T07:00:33.064Z,21.15
2022-07-28T07:03:00.717Z,21.14
2022-07-28T07:05:31.697Z,21.17
2022-07-28T07:07:58.199Z,21.23
2022-07-28T07:10:24.673Z,21.42
2022-07-28T07:12:53.495Z,21.44
2022-07-28T07:15:19.994Z,21.70
2022-07-28T07:17:46.480Z,21.74
2022-07-28T07:20:14.146Z,21.83
2022-07-28T07:22:47.366Z,21.99
2022-07-28T07:25:16.556Z,21.92
2022-07-28T07:27:43.541Z,22.16
2022-07-28T07:30:11.189Z,22.10
2022-07-28T07:32:37.923Z,22.04
2022-07-28T07:35:05.997Z,22.01
2022-07-28T07:37:32.607Z,22.38
2022-07-28T07:40:04.654Z,22.58
2022-07-28T07:42:31.558Z,22.76
2022-07-28T07:44:58.011Z,22.93
2022-07-28T07:47:24.535Z,23.02
2022-07-28T07:49:51.577Z,23.15
2022-07-28T07:52:18.228Z,22.96
2022-07-28T07:54:45.474Z,22.96
2022-07-28T07:57:12.111Z,23.06
2022-07-28T07:59:38.584Z,22.94
2022-07-28T08:02:05.657Z,23.03
2022-07-28T08:04:32.369Z,22.95
2022-07-28T08:07:04.596Z,23.08
2022-07-28T08:09:32.367Z,23.11
2022-07-28T08:11:59.095Z,23.08
2022-07-28T08:14:25.676Z,23.14
2022-07-28T08:16:52.348Z,23.56
2022-07-28T08:19:21.376Z,23.69
2022-07-28T08:21:48.819Z,23.76
2022-07-28T08:24:32.331Z,23.96
2022-07-28T08:27:03.704Z,24.02
2022-07-28T08:29:30.323Z,24.20
2022-07-28T08:31:57.576Z,24.18
2022-07-28T08:34:26.527Z,24.28
2022-07-28T08:36:59.106Z,24.52
2022-07-28T08:39:25.669Z,24.38
2022-07-28T08:41:55.215Z,24.68
2022-07-28T08:44:41.236Z,24.73
2022-07-28T08:47:10.499Z,24.70
2022-07-28T08:49:40.537Z,24.83
2022-07-28T08:52:10.478Z,25.10
2022-07-28T08:54:40.851Z,25.34
2022-07-28T08:57:09.041Z,25.53
2022-07-28T08:59:36.885Z,25.75
2022-07-28T09:02:06.103Z,25.76
2022-07-28T09:04:36.986Z,26.16
2022-07-28T09:07:04.453Z,26.07
2022-07-28T09:09:32.409Z,26.36
2022-07-28T09:12:02.003Z,26.40
2022-07-28T09:14:28.542Z,26.63
2022-07-28T09:16:55.432Z,27.01
2022-07-28T09:19:22.026Z,26.98
2022-07-28T09:21:48.528Z,26.89
2022-07-28T09:24:35.114Z,27.26
2022-07-28T09:27:04.221Z,27.34
2022-07-28T09:29:30.881Z,27.45
2022-07-28T09:31:57.757Z,27.37
2022-07-28T09:34:24.627Z,27.22
2022-07-28T09:36:52.205Z,27.65
2022-07-28T09:39:36.650Z,27.59
2022-07-28T09:42:03.272Z,28.04
2022-07-28T09:44:29.928Z,28.27
2022-07-28T09:46:56.706Z,28.38
2022-07-28T09:49:43.358Z,28.57
2022-07-28T09:52:09.965Z,28.88
2022-07-28T09:54:40.688Z,28.96
2022-07-28T09:57:11.547Z,29.12
2022-07-28T09:59:42.962Z,29.31
2022-07-28T10:02:12.728Z,29.47
2022-07-28T10:04:41.504Z,28.87
2022-07-28T10:07:10.348Z,29.48
2022-07-28T10:09:38.967Z,30.13
2022-07-28T10:12:24.643Z,30.37
2022-07-28T10:14:53.812Z,30.57
2022-07-28T10:17:32.092Z,30.09
2022-07-28T10:20:00.568Z,30.18
2022-07-28T10:22:33.837Z,30.79
2022-07-28T10:25:12.428Z,31.00
2022-07-28T10:27:41.887Z,31.10
2022-07-28T10:30:09.591Z,30.85
2022-07-28T10:32:42.009Z,31.01
2022-07-28T10:35:17.551Z,31.01
2022-07-28T10:38:04.584Z,30.63
2022-07-28T10:40:42.255Z,30.75
2022-07-28T10:43:09.002Z,30.20
2022-07-28T10:46:03.288Z,29.65
2022-07-28T10:48:23.901Z,29.72
2022-07-28T10:50:51.705Z,30.11
2022-07-28T10:53:54.566Z,30.11
2022-07-28T10:56:40.100Z,29.99
2022-07-28T10:59:31.557Z,29.80
2022-07-28T11:01:58.147Z,29.99
2022-07-28T11:04:47.723Z,29.97
2022-07-28T11:07:16.928Z,29.02
2022-07-28T11:09:44.597Z,29.52
2022-07-28T11:12:15.172Z,29.87
2022-07-28T11:14:42.804Z,30.06
2022-07-28T11:17:11.305Z,29.92
2022-07-28T11:19:51.570Z,29.91
2022-07-28T11:22:33.284Z,30.11
2022-07-28T11:25:18.501Z,31.09
2022-07-28T11:27:49.879Z,30.96
2022-07-28T11:30:21.065Z,31.52
2022-07-28T11:32:50.537Z,31.38
2022-07-28T11:35:19.390Z,31.22
2022-07-28T11:38:01.466Z,31.63
2022-07-28T11:40:38.691Z,32.03
2022-07-28T11:43:27.921Z,32.25
2022-07-28T11:46:07.816Z,32.49
2022-07-28T11:48:37.024Z,32.74
2022-07-28T11:51:03.552Z,33.28
2022-07-28T11:53:35.397Z,33.66
2022-07-28T11:56:07.456Z,34.11
2022-07-28T11:58:34.283Z,33.82
2022-07-28T12:01:18.204Z,33.88
2022-07-28T12:03:50.286Z,33.89
2022-07-28T12:06:33.445Z,34.61
2022-07-28T12:09:04.554Z,33.13
2022-07-28T12:11:33.341Z,32.76
2022-07-28T12:14:12.298Z,32.93
2022-07-28T12:16:44.547Z,33.33
2022-07-28T12:19:15.215Z,32.36
2022-07-28T12:21:46.184Z,32.98
2022-07-28T12:24:18.673Z,32.49
2022-07-28T12:26:49.530Z,33.01
2022-07-28T12:29:17.254Z,32.83
2022-07-28T12:31:54.605Z,32.64
2022-07-28T12:34:22.058Z,33.48
2022-07-28T12:36:56.908Z,33.97
2022-07-28T12:39:25.531Z,34.19
2022-07-28T12:42:07.230Z,33.95
2022-07-28T12:44:34.421Z,34.04
2022-07-28T12:47:01.758Z,34.96
2022-07-28T12:49:28.429Z,34.43
2022-07-28T12:51:54.952Z,34.91
2022-07-28T12:54:37.189Z,35.07
2022-07-28T12:57:04.368Z,35.49
2022-07-28T12:59:36.189Z,35.19
2022-07-28T13:02:03.117Z,34.44
2022-07-28T13:04:41.643Z,34.37
2022-07-28T13:07:14.078Z,35.84
2022-07-28T13:09:51.393Z,34.57
2022-07-28T13:12:27.435Z,34.42
2022-07-28T13:14:56.198Z,34.02
2022-07-28T13:17:30.806Z,34.67
2022-07-28T13:20:13.044Z,33.42
2022-07-28T13:22:40.231Z,34.01
2022-07-28T13:25:07.903Z,34.01
2022-07-28T13:27:34.825Z,34.39
2022-07-28T13:30:05.452Z,35.51
2022-07-28T13:32:32.092Z,35.50
2022-07-28T13:34:58.584Z,35.62
2022-07-28T13:37:25.097Z,36.31
2022-07-28T13:39:54.455Z,35.63
2022-07-28T13:42:21.788Z,35.65
2022-07-28T13:44:50.631Z,35.59
2022-07-28T13:47:18.041Z,36.25
2022-07-28T13:49:44.832Z,35.71
2022-07-28T13:52:33.131Z,35.76
2022-07-28T13:55:03.981Z,35.09
2022-07-28T13:57:31.000Z,35.12
2022-07-28T13:59:57.566Z,35.28
2022-07-28T14:02:25.983Z,35.15
2022-07-28T14:04:52.693Z,34.92
2022-07-28T14:07:20.433Z,33.56
2022-07-28T14:09:47.516Z,34.15
2022-07-28T14:12:14.297Z,33.45
2022-07-28T14:14:40.763Z,33.39
2022-07-28T14:17:40.230Z,33.79
2022-07-28T14:20:02.067Z,33.38
2022-07-28T14:22:28.793Z,33.19
2022-07-28T14:24:55.253Z,33.07
2022-07-28T14:27:25.873Z,32.92
2022-07-28T14:29:55.257Z,33.25
2022-07-28T14:32:21.721Z,32.90
2022-07-28T14:34:48.211Z,32.84
2022-07-28T14:37:15.265Z,32.84
2022-07-28T14:39:42.393Z,32.44
2022-07-28T14:42:10.277Z,32.34
2022-07-28T14:44:36.958Z,32.27
2022-07-28T14:47:04.232Z,31.98
2022-07-28T14:49:31.489Z,31.87
2022-07-28T14:51:59.205Z,31.38
2022-07-28T14:54:27.585Z,31.41
2022-07-28T14:56:54.728Z,31.46
2022-07-28T14:59:21.475Z,31.34
2022-07-28T15:01:48.905Z,31.18
2022-07-28T15:04:16.463Z,31.05
2022-07-28T15:06:43.298Z,31.48
2022-07-28T15:09:10.101Z,31.66
2022-07-28T15:11:37.431Z,31.87
2022-07-28T15:14:04.424Z,31.77
2022-07-28T15:16:31.273Z,30.89
2022-07-28T15:18:58.197Z,31.08
2022-07-28T15:21:24.987Z,31.09
2022-07-28T15:23:51.619Z,30.85
2022-07-28T15:26:18.112Z,31.38
2022-07-28T15:28:46.593Z,31.48
2022-07-28T15:31:13.106Z,31.21
2022-07-28T15:33:48.386Z,30.79
2022-07-28T15:36:25.420Z,31.07
2022-07-28T15:38:53.365Z,30.97
2022-07-28T15:41:20.355Z,30.96
2022-07-28T15:43:47.494Z,31.30
2022-07-28T15:46:14.582Z,31.61
2022-07-28T15:48:43.986Z,33.01
2022-07-28T15:51:11.097Z,33.96
2022-07-28T15:53:38.218Z,33.68
2022-07-28T15:56:05.253Z,32.48
2022-07-28T15:58:31.881Z,32.06
2022-07-28T16:01:01.564Z,32.41
2022-07-28T16:03:29.287Z,32.15
2022-07-28T16:05:55.924Z,31.96
2022-07-28T16:08:23.314Z,31.11
2022-07-28T16:10:52.388Z,31.58
2022-07-28T16:13:28.604Z,31.23
2022-07-28T16:16:14.034Z,32.06
2022-07-28T16:18:42.558Z,32.15
2022-07-28T16:21:10.652Z,31.97
2022-07-28T16:23:37.203Z,31.48
2022-07-28T16:26:07.501Z,31.82
2022-07-28T16:28:34.231Z,31.43
2022-07-28T16:31:00.776Z,31.23
2022-07-28T16:33:27.412Z,31.47
2022-07-28T16:35:59.897Z,32.67
2022-07-28T16:38:26.506Z,31.33
2022-07-28T16:40:52.997Z,31.08
2022-07-28T16:43:19.531Z,30.91
2022-07-28T16:45:46.023Z,31.00
2022-07-28T16:48:12.791Z,30.94
2022-07-28T16:50:39.293Z,30.86
2022-07-28T16:53:08.844Z,30.45
2022-07-28T16:55:35.475Z,30.40
2022-07-28T16:58:02.041Z,30.20
2022-07-28T17:00:29.423Z,30.35
2022-07-28T17:02:55.953Z,29.95
2022-07-28T17:05:22.739Z,29.91
2022-07-28T17:07:50.392Z,29.69
2022-07-28T17:10:20.344Z,30.02
2022-07-28T17:12:50.193Z,29.72
2022-07-28T17:15:22.223Z,29.75
2022-07-28T17:17:54.085Z,29.61
2022-07-28T17:20:21.006Z,29.72
2022-07-28T17:22:47.985Z,29.48
2022-07-28T17:28:02.257Z,29.48
2022-07-28T17:30:29.703Z,29.40
2022-07-28T17:32:58.750Z,29.45
2022-07-28T17:35:34.795Z,29.48
2022-07-28T17:38:03.227Z,29.20
2022-07-28T17:40:30.028Z,28.99
2022-07-28T17:42:57.938Z,29.16
2022-07-28T17:45:24.572Z,29.19
2022-07-28T17:47:51.988Z,28.79
2022-07-28T17:50:18.864Z,28.69
2022-07-28T17:52:46.449Z,28.51
2022-07-28T17:55:40.690Z,28.85
2022-07-28T17:58:27.740Z,28.67
2022-07-28T18:00:58.283Z,28.73
2022-07-28T18:03:26.377Z,28.60
2022-07-28T18:05:52.869Z,28.49
2022-07-28T18:08:19.910Z,28.38
2022-07-28T18:10:47.612Z,28.40
2022-07-28T18:13:14.461Z,28.06
2022-07-28T18:15:42.442Z,27.99
2022-07-28T18:18:09.846Z,28.27
2022-07-28T18:20:37.827Z,28.09
2022-07-28T18:23:05.208Z,28.07
2022-07-28T18:25:33.117Z,27.91
2022-07-28T18:28:00.004Z,27.92
2022-07-28T18:30:27.640Z,27.77
2022-07-28T18:32:54.256Z,27.97
2022-07-28T18:35:22.196Z,27.74
2022-07-28T18:37:49.619Z,27.72
2022-07-28T18:40:17.827Z,27.79
2022-07-28T18:42:45.012Z,27.67
2022-07-28T18:45:12.155Z,27.48
2022-07-28T18:47:47.493Z,27.46
2022-07-28T18:50:30.978Z,27.44
2022-07-28T18:52:58.676Z,27.45
2022-07-28T18:55:25.273Z,27.45
2022-07-28T18:57:51.734Z,27.19
2022-07-28T19:00:18.236Z,27.09
2022-07-28T19:02:44.788Z,27.02
2022-07-28T19:05:11.468Z,27.06
2022-07-28T19:07:37.989Z,26.90
2022-07-28T19:10:05.582Z,26.77
2022-07-28T19:12:34.021Z,26.75
2022-07-28T19:15:01.044Z,26.47
2022-07-28T19:17:27.543Z,26.41
2022-07-28T19:19:56.129Z,26.53
2022-07-28T19:22:23.849Z,26.31
2022-07-28T19:24:51.835Z,26.22
2022-07-28T19:27:19.284Z,26.10
2022-07-28T19:29:46.183Z,25.95
2022-07-28T19:32:12.688Z,25.90
2022-07-28T19:34:39.230Z,25.85
2022-07-28T19:37:06.474Z,25.78
2022-07-28T19:39:34.380Z,25.71
2022-07-28T19:42:00.871Z,25.68
2022-07-28T19:44:29.905Z,25.67
2022-07-28T19:47:00.357Z,25.47
2022-07-28T19:49:28.126Z,25.53
2022-07-28T19:51:55.826Z,25.38
2022-07-28T19:54:23.225Z,25.40
2022-07-28T19:56:49.840Z,25.25
2022-07-28T19:59:16.413Z,25.14
2022-07-28T20:01:46.990Z,25.10
2022-07-28T20:04:17.353Z,25.13
2022-07-28T20:06:44.182Z,25.21
2022-07-28T20:09:10.761Z,25.03
2022-07-28T20:11:38.876Z,24.98
2022-07-28T20:14:05.502Z,24.99
2022-07-28T20:16:32.096Z,25.00
2022-07-28T20:18:58.655Z,24.86
2022-07-28T20:21:26.493Z,24.91
2022-07-28T20:23:55.271Z,24.82
2022-07-28T20:26:23.623Z,24.88
2022-07-28T20:28:50.528Z,24.84
2022-07-28T20:31:17.339Z,24.67
2022-07-28T20:33:44.011Z,24.67
2022-07-28T20:36:10.503Z,24.63
2022-07-28T20:38:39.136Z,24.51
2022-07-28T20:41:07.356Z,24.50
2022-07-28T20:43:36.358Z,24.47
2022-07-28T20:46:05.209Z,24.57
2022-07-28T20:48:32.402Z,24.58
2022-07-28T20:50:59.023Z,24.42
2022-07-28T20:53:25.461Z,24.41
2022-07-28T20:55:51.866Z,24.32
2022-07-28T20:58:18.379Z,24.40
2022-07-28T21:00:44.910Z,24.48
2022-07-28T21:03:11.389Z,24.36
2022-07-28T21:05:38.058Z,24.40
2022-07-28T21:08:09.219Z,24.40
2022-07-28T21:10:40.735Z,24.33
2022-07-28T21:13:07.527Z,24.39
2022-07-28T21:15:33.994Z,24.35
2022-07-28T21:18:00.501Z,24.29
2022-07-28T21:20:27.213Z,24.34
2022-07-28T21:22:53.938Z,24.37
2022-07-28T21:25:20.521Z,24.18
2022-07-28T21:28:05.584Z,24.21
2022-07-28T21:30:32.451Z,24.11
2022-07-28T21:32:59.056Z,24.16
2022-07-28T21:35:25.815Z,24.07
2022-07-28T21:37:52.373Z,23.99
2022-07-28T21:40:19.265Z,23.98
2022-07-28T21:42:46.744Z,23.91
2022-07-28T21:45:13.305Z,23.91
2022-07-28T21:47:40.555Z,23.89
2022-07-28T21:50:07.519Z,23.89
2022-07-28T21:52:35.248Z,23.90
2022-07-28T21:55:02.490Z,23.86
2022-07-28T21:57:29.175Z,23.86
2022-07-28T21:59:56.345Z,23.89
2022-07-28T22:02:24.132Z,23.95
2022-07-28T22:04:51.947Z,23.93
2022-07-28T22:07:18.799Z,23.97
2022-07-28T22:09:45.356Z,23.81
2022-07-28T22:12:11.919Z,23.80
2022-07-28T22:14:38.490Z,23.77
2022-07-28T22:17:05.083Z,23.78
2022-07-28T22:19:31.845Z,23.82
2022-07-28T22:21:59.718Z,23.88
2022-07-28T22:24:26.322Z,23.91
2022-07-28T22:26:52.805Z,23.90
2022-07-28T22:29:19.312Z,23.95
2022-07-28T22:31:45.954Z,23.98
2022-07-28T22:34:12.915Z,23.97
2022-07-28T22:36:39.606Z,24.00
2022-07-28T22:39:06.094Z,24.01
2022-07-28T22:41:32.713Z,24.00
2022-07-28T22:43:59.200Z,24.03
2022-07-28T22:46:25.758Z,24.05
2022-07-28T22:48:52.322Z,23.94
2022-07-28T22:51:18.872Z,23.92
2022-07-28T22:53:45.450Z,24.00
2022-07-28T22:56:12.591Z,24.07
2022-07-28T22:58:39.984Z,24.06
2022-07-28T23:01:06.622Z,23.97
2022-07-28T23:03:33.963Z,23.97
2022-07-28T23:06:01.060Z,23.95
2022-07-28T23:08:28.511Z,23.88
2022-07-28T23:10:55.091Z,23.83
2022-07-28T23:13:22.376Z,23.89
2022-07-28T23:15:49.005Z,23.79
2022-07-28T23:18:15.555Z,23.77
2022-07-28T23:20:43.642Z,23.77
2022-07-28T23:23:11.923Z,23.79
2022-07-28T23:25:42.456Z,23.70
2022-07-28T23:28:09.377Z,23.71
2022-07-28T23:30:36.429Z,23.68
2022-07-28T23:33:03.885Z,23.63
2022-07-28T23:35:30.364Z,23.66
2022-07-28T23:37:56.860Z,23.58
2022-07-28T23:40:23.700Z,23.64
2022-07-28T23:42:50.188Z,23.53
2022-07-28T23:45:16.688Z,23.52
2022-07-28T23:47:43.179Z,23.45
2022-07-28T23:50:10.017Z,23.33
2022-07-28T23:52:36.552Z,23.31
2022-07-28T23:55:03.203Z,23.28
2022-07-28T23:57:30.926Z,23.20
2022-07-28T23:59:58.787Z,23.19
